createdAt,value
2017-11-05T00:00:42.153Z,20.50
2017-11-05T00:03:08.588Z,21.10
2017-11-05T00:05:34.977Z,20.30
2017-11-05T00:08:01.354Z,20.85
2017-11-05T00:10:27.754Z,21.80
2017-11-05T00:12:54.167Z,19.85
2017-11-05T00:15:20.595Z,22.00
2017-11-05T00:17:47.751Z,18.37
2017-11-05T00:20:14.234Z,21.45
2017-11-05T00:22:40.692Z,20.40
2017-11-05T00:25:08.171Z,22.15
2017-11-05T00:27:34.597Z,21.67
2017-11-05T00:30:01.045Z,20.73
2017-11-05T00:32:27.499Z,18.52
2017-11-05T00:34:53.876Z,23.25
2017-11-05T00:37:20.991Z,21.60
2017-11-05T00:39:47.453Z,20.88
2017-11-05T00:42:13.839Z,21.40
2017-11-05T00:44:40.181Z,20.58
2017-11-05T00:47:07.198Z,19.98
2017-11-05T00:49:33.492Z,20.75
2017-11-05T00:52:00.542Z,20.98
2017-11-05T00:54:26.843Z,21.30
2017-11-05T00:56:53.195Z,21.65
2017-11-05T00:59:19.456Z,20.62
2017-11-05T01:01:45.743Z,19.67
2017-11-05T01:04:12.066Z,22.70
2017-11-05T01:06:39.207Z,21.70
2017-11-05T01:09:06.254Z,19.85
2017-11-05T01:11:32.547Z,22.65
2017-11-05T01:13:58.826Z,20.55
2017-11-05T01:16:25.110Z,19.80
2017-11-05T01:18:52.142Z,20.83
2017-11-05T01:21:18.406Z,22.42
2017-11-05T01:23:44.710Z,21.40
2017-11-05T01:26:11.722Z,20.55
2017-11-05T01:28:38.014Z,21.17
2017-11-05T01:31:04.343Z,19.42
2017-11-05T01:33:30.675Z,21.02
2017-11-05T01:35:56.993Z,21.55
2017-11-05T01:38:23.271Z,21.45
2017-11-05T01:40:49.606Z,21.42
2017-11-05T01:43:15.890Z,20.85
2017-11-05T01:45:42.238Z,21.92
2017-11-05T01:48:08.527Z,21.40
2017-11-05T01:50:34.841Z,22.08
2017-11-05T01:53:01.196Z,22.77
2017-11-05T01:55:27.528Z,21.62
2017-11-05T01:57:53.842Z,23.85
2017-11-05T02:00:20.167Z,20.12
2017-11-05T02:02:46.497Z,23.87
2017-11-05T02:05:12.842Z,23.92
2017-11-05T02:07:39.174Z,23.67
2017-11-05T02:10:05.483Z,25.73
2017-11-05T02:12:31.766Z,24.20
2017-11-05T02:14:58.129Z,24.92
2017-11-05T02:17:24.421Z,25.02
2017-11-05T02:19:51.531Z,25.00
2017-11-05T02:22:17.834Z,27.80
2017-11-05T02:24:44.163Z,25.55
2017-11-05T02:27:10.503Z,26.83
2017-11-05T02:29:36.784Z,26.30
2017-11-05T02:32:03.107Z,26.35
2017-11-05T02:34:30.471Z,24.85
2017-11-05T02:36:56.728Z,26.05
2017-11-05T02:39:23.070Z,26.83
2017-11-05T02:41:49.363Z,29.63
2017-11-05T02:44:15.702Z,27.45
2017-11-05T02:46:42.053Z,28.02
2017-11-05T02:49:08.601Z,29.20
2017-11-05T02:51:35.016Z,30.58
2017-11-05T02:54:01.417Z,29.35
2017-11-05T02:56:27.895Z,27.00
2017-11-05T02:58:54.420Z,29.48
2017-11-05T03:01:20.842Z,30.40
2017-11-05T03:03:47.293Z,31.70
2017-11-05T03:06:13.728Z,31.40
2017-11-05T03:08:40.207Z,29.67
2017-11-05T03:11:06.650Z,30.62
2017-11-05T03:13:33.124Z,26.45
2017-11-05T03:15:59.627Z,28.52
2017-11-05T03:18:26.100Z,28.25
2017-11-05T03:20:52.599Z,28.33
2017-11-05T03:23:19.053Z,27.20
2017-11-05T03:25:45.503Z,28.40
2017-11-05T03:28:12.048Z,28.90
2017-11-05T03:30:39.521Z,28.38
2017-11-05T03:33:07.771Z,30.52
2017-11-05T03:35:34.199Z,30.80
2017-11-05T03:38:00.652Z,33.28
2017-11-05T03:40:27.147Z,26.60
2017-11-05T03:42:53.587Z,29.45
2017-11-05T03:45:20.763Z,31.17
2017-11-05T03:47:47.244Z,28.20
2017-11-05T03:50:14.427Z,29.37
2017-11-05T03:52:40.883Z,31.77
2017-11-05T03:55:07.308Z,30.10
2017-11-05T03:57:33.767Z,30.67
2017-11-05T04:00:00.216Z,31.75
2017-11-05T04:02:26.687Z,31.15
2017-11-05T04:04:53.855Z,28.85
2017-11-05T04:07:20.255Z,32.30
2017-11-05T04:09:46.685Z,28.00
2017-11-05T04:12:13.126Z,30.20
2017-11-05T04:14:39.637Z,31.48
2017-11-05T04:17:07.854Z,30.50
2017-11-05T04:19:34.340Z,31.15
2017-11-05T04:22:00.827Z,31.37
2017-11-05T04:24:28.059Z,29.45
2017-11-05T04:26:54.504Z,31.40
2017-11-05T04:29:20.939Z,30.60
2017-11-05T04:31:47.423Z,31.03
2017-11-05T04:34:13.859Z,28.43
2017-11-05T04:36:41.072Z,28.10
2017-11-05T04:39:07.512Z,26.50
2017-11-05T04:41:34.017Z,26.57
2017-11-05T04:44:00.634Z,27.45
2017-11-05T04:46:27.104Z,26.97
2017-11-05T04:48:53.565Z,29.20
2017-11-05T04:51:20.081Z,29.73
2017-11-05T04:53:46.563Z,30.23
2017-11-05T04:56:13.723Z,30.83
2017-11-05T04:58:40.220Z,28.48
2017-11-05T05:01:06.651Z,25.80
2017-11-05T05:03:33.143Z,28.33
2017-11-05T05:05:59.575Z,27.90
2017-11-05T05:08:27.055Z,27.57
2017-11-05T05:10:53.468Z,25.47
2017-11-05T05:13:19.907Z,23.80
2017-11-05T05:15:46.438Z,24.57
2017-11-05T05:18:12.897Z,24.87
2017-11-05T05:20:40.447Z,24.07
2017-11-05T05:23:07.927Z,24.20
2017-11-05T05:25:34.375Z,23.00
2017-11-05T05:28:00.804Z,24.10
2017-11-05T05:30:27.278Z,22.50
2017-11-05T05:32:53.764Z,24.27
2017-11-05T05:35:20.255Z,22.63
2017-11-05T05:37:46.729Z,23.35
2017-11-05T05:40:13.188Z,23.93
2017-11-05T05:42:40.371Z,22.20
2017-11-05T05:45:06.788Z,22.60
2017-11-05T05:47:33.272Z,25.80
2017-11-05T05:49:59.683Z,23.40
2017-11-05T05:52:26.112Z,23.90
2017-11-05T05:54:52.596Z,21.60
2017-11-05T05:57:19.067Z,23.20
2017-11-05T05:59:45.540Z,24.13
2017-11-05T06:02:11.976Z,24.70
2017-11-05T06:04:38.447Z,23.73
2017-11-05T06:07:04.846Z,22.73
2017-11-05T06:09:31.326Z,23.60
2017-11-05T06:11:57.760Z,22.10
2017-11-05T06:14:24.237Z,23.73
2017-11-05T06:16:51.477Z,22.90
2017-11-05T06:19:17.886Z,23.50
2017-11-05T06:21:45.120Z,24.73
2017-11-05T06:24:12.295Z,24.77
2017-11-05T06:26:38.720Z,23.67
2017-11-05T06:29:05.171Z,23.17
2017-11-05T06:31:32.496Z,23.20
2017-11-05T06:33:59.020Z,21.13
2017-11-05T06:36:25.502Z,20.40
2017-11-05T06:38:51.972Z,20.00
2017-11-05T06:41:18.412Z,21.50
2017-11-05T06:43:44.866Z,18.70
2017-11-05T06:46:11.408Z,18.47
2017-11-05T06:48:37.842Z,17.27
2017-11-05T06:51:04.335Z,18.43
2017-11-05T06:53:30.769Z,16.97
2017-11-05T06:55:57.944Z,17.20
2017-11-05T06:58:24.361Z,16.85
2017-11-05T07:00:51.500Z,16.93
2017-11-05T07:03:17.962Z,15.97
2017-11-05T07:05:45.215Z,14.50
2017-11-05T07:08:11.680Z,15.97
2017-11-05T07:10:41.603Z,15.83
2017-11-05T07:13:08.100Z,15.97
2017-11-05T07:15:34.523Z,16.33
2017-11-05T07:18:00.936Z,15.80
2017-11-05T07:20:27.439Z,16.23
2017-11-05T07:22:53.927Z,16.53
2017-11-05T07:25:20.412Z,17.27
2017-11-05T07:27:46.883Z,16.10
2017-11-05T07:30:13.335Z,16.07
2017-11-05T07:32:39.923Z,16.50
2017-11-05T07:35:07.103Z,16.40
2017-11-05T07:37:34.349Z,14.47
2017-11-05T07:40:00.779Z,15.60
2017-11-05T07:42:27.978Z,14.53
2017-11-05T07:44:54.436Z,16.80
2017-11-05T07:47:20.867Z,16.47
2017-11-05T07:49:47.336Z,15.43
2017-11-05T07:52:13.730Z,15.30
2017-11-05T07:54:40.980Z,15.50
2017-11-05T07:57:07.483Z,14.33
2017-11-05T07:59:33.913Z,50.63
2017-11-05T08:02:01.119Z,38.27
2017-11-05T08:04:27.549Z,27.97
2017-11-05T08:06:53.977Z,14.50
2017-11-05T08:09:20.436Z,13.60
2017-11-05T08:11:46.855Z,13.60
2017-11-05T08:14:13.327Z,15.03
2017-11-05T08:16:39.852Z,15.97
2017-11-05T08:19:06.331Z,15.27
2017-11-05T08:21:32.783Z,14.67
2017-11-05T08:23:59.272Z,13.10
2017-11-05T08:26:26.443Z,10.67
2017-11-05T08:28:52.928Z,3.73
2017-11-05T08:31:19.383Z,1.80
2017-11-05T08:33:46.586Z,1.00
2017-11-05T08:36:13.041Z,1.23
2017-11-05T08:38:39.487Z,0.80
2017-11-05T08:41:05.939Z,0.90
2017-11-05T08:43:32.384Z,0.70
2017-11-05T08:45:58.819Z,1.10
2017-11-05T08:48:25.989Z,1.10
2017-11-05T08:50:52.407Z,1.45
2017-11-05T08:53:19.563Z,1.60
2017-11-05T08:55:46.009Z,1.62
2017-11-05T08:58:12.416Z,1.00
2017-11-05T09:00:38.895Z,1.10
2017-11-05T09:03:07.053Z,1.30
2017-11-05T09:05:33.532Z,1.60
2017-11-05T09:07:59.919Z,1.20
2017-11-05T09:10:26.352Z,1.50
2017-11-05T09:12:52.811Z,1.50
2017-11-05T09:15:19.284Z,1.52
2017-11-05T09:17:45.782Z,1.15
2017-11-05T09:20:12.962Z,1.40
2017-11-05T09:22:39.399Z,1.55
2017-11-05T09:25:05.884Z,1.40
2017-11-05T09:27:32.344Z,1.25
2017-11-05T09:29:58.775Z,1.42
2017-11-05T09:32:26.067Z,1.67
2017-11-05T09:34:53.213Z,1.80
2017-11-05T09:37:19.688Z,1.40
2017-11-05T09:39:46.096Z,1.70
2017-11-05T09:42:12.557Z,2.03
2017-11-05T09:44:39.784Z,1.80
2017-11-05T09:47:06.181Z,1.67
2017-11-05T09:49:32.655Z,1.70
2017-11-05T09:51:59.803Z,1.30
2017-11-05T09:54:26.975Z,1.85
2017-11-05T09:56:53.437Z,1.35
2017-11-05T09:59:20.005Z,1.25
2017-11-05T10:01:46.574Z,1.90
2017-11-05T10:04:13.113Z,1.60
2017-11-05T10:06:39.821Z,1.37
2017-11-05T10:09:06.338Z,1.30
2017-11-05T10:11:32.861Z,1.05
2017-11-05T10:13:59.308Z,1.40
2017-11-05T10:16:26.695Z,1.25
2017-11-05T10:18:53.272Z,1.30
2017-11-05T10:21:19.877Z,2.08
2017-11-05T10:23:46.578Z,1.77
2017-11-05T10:26:13.572Z,2.00
2017-11-05T10:28:41.195Z,1.90
2017-11-05T10:31:08.175Z,2.05
2017-11-05T10:33:35.309Z,3.03
2017-11-05T10:36:03.425Z,2.15
2017-11-05T10:38:32.192Z,2.62
2017-11-05T10:40:59.208Z,1.90
2017-11-05T10:43:26.089Z,2.05
2017-11-05T10:45:54.293Z,1.67
2017-11-05T10:48:23.195Z,1.62
2017-11-05T10:50:50.908Z,2.00
2017-11-05T10:53:20.489Z,2.45
2017-11-05T10:55:49.209Z,2.15
2017-11-05T10:58:18.116Z,2.80
2017-11-05T11:00:46.169Z,2.30
2017-11-05T11:03:14.890Z,2.30
2017-11-05T11:05:43.947Z,1.93
2017-11-05T11:08:12.848Z,2.27
2017-11-05T11:10:42.844Z,2.08
2017-11-05T11:13:10.839Z,1.90
2017-11-05T11:15:40.867Z,1.62
2017-11-05T11:18:10.607Z,1.80
2017-11-05T11:20:39.603Z,2.10
2017-11-05T11:23:08.921Z,1.83
2017-11-05T11:25:38.237Z,2.90
2017-11-05T11:28:08.562Z,3.25
2017-11-05T11:30:37.453Z,2.92
2017-11-05T11:33:06.258Z,2.83
2017-11-05T11:35:35.876Z,3.10
2017-11-05T11:38:04.595Z,2.10
2017-11-05T11:40:33.548Z,3.25
2017-11-05T11:43:02.689Z,1.83
2017-11-05T11:45:31.909Z,1.50
2017-11-05T11:48:00.705Z,1.98
2017-11-05T11:50:30.541Z,3.00
2017-11-05T11:52:59.530Z,2.40
2017-11-05T11:55:28.506Z,1.90
2017-11-05T11:57:57.469Z,2.00
2017-11-05T12:00:26.466Z,2.30
2017-11-05T12:02:57.112Z,2.42
2017-11-05T12:05:25.998Z,2.47
2017-11-05T12:07:55.095Z,2.08
2017-11-05T12:10:23.137Z,23.62
2017-11-05T12:12:51.899Z,2.35
2017-11-05T12:15:20.705Z,2.30
2017-11-05T12:17:49.346Z,1.90
2017-11-05T12:20:18.438Z,1.80
2017-11-05T12:22:47.704Z,2.22
2017-11-05T12:25:16.602Z,1.90
2017-11-05T12:27:45.917Z,2.40
2017-11-05T12:30:15.748Z,1.90
2017-11-05T12:32:45.196Z,1.90
2017-11-05T12:35:14.167Z,2.47
2017-11-05T12:37:43.133Z,2.30
2017-11-05T12:40:12.967Z,1.75
2017-11-05T12:42:42.714Z,2.00
2017-11-05T12:45:11.803Z,2.30
2017-11-05T12:47:41.552Z,1.92
2017-11-05T12:50:11.038Z,1.58
2017-11-05T12:52:39.722Z,1.95
2017-11-05T12:55:09.784Z,2.50
2017-11-05T12:57:39.467Z,1.75
2017-11-05T13:00:08.231Z,2.50
2017-11-05T13:02:38.035Z,3.08
2017-11-05T13:05:08.085Z,3.75
2017-11-05T13:07:37.131Z,4.35
2017-11-05T13:10:05.054Z,3.37
2017-11-05T13:12:34.723Z,3.30
2017-11-05T13:15:03.515Z,3.90
2017-11-05T13:17:32.087Z,3.87
2017-11-05T13:20:02.111Z,4.30
2017-11-05T13:22:31.288Z,4.10
2017-11-05T13:25:00.732Z,3.42
2017-11-05T13:27:29.588Z,4.47
2017-11-05T13:29:58.071Z,4.55
2017-11-05T13:32:27.959Z,4.45
2017-11-05T13:34:56.947Z,5.00
2017-11-05T13:37:26.237Z,4.78
2017-11-05T13:39:55.207Z,4.47
2017-11-05T13:42:24.868Z,4.95
2017-11-05T13:44:53.592Z,5.20
2017-11-05T13:47:22.260Z,4.32
2017-11-05T13:49:51.485Z,4.85
2017-11-05T13:52:20.925Z,4.20
2017-11-05T13:54:50.732Z,4.53
2017-11-05T13:57:20.549Z,3.40
2017-11-05T13:59:50.014Z,4.03
2017-11-05T14:02:18.666Z,4.78
2017-11-05T14:04:47.219Z,5.30
2017-11-05T14:07:15.822Z,5.10
2017-11-05T14:09:44.717Z,5.60
2017-11-05T14:12:13.407Z,5.57
2017-11-05T14:14:40.768Z,5.18
2017-11-05T14:17:09.482Z,5.10
2017-11-05T14:19:38.088Z,5.95
2017-11-05T14:22:07.227Z,5.75
2017-11-05T14:24:36.946Z,5.40
2017-11-05T14:27:06.996Z,5.32
2017-11-05T14:29:35.981Z,5.95
2017-11-05T14:32:04.570Z,6.28
2017-11-05T14:34:33.429Z,6.82
2017-11-05T14:37:01.340Z,5.20
2017-11-05T14:39:30.880Z,5.37
2017-11-05T14:42:01.906Z,4.57
2017-11-05T14:44:30.929Z,5.15
2017-11-05T14:47:00.819Z,8.07
2017-11-05T14:49:29.555Z,4.85
2017-11-05T14:51:59.790Z,4.85
2017-11-05T14:54:28.795Z,4.20
2017-11-05T14:56:57.696Z,5.00
2017-11-05T14:59:26.773Z,4.93
2017-11-05T15:01:55.477Z,4.47
2017-11-05T15:04:24.573Z,4.70
2017-11-05T15:06:52.437Z,4.90
2017-11-05T15:09:20.423Z,5.12
2017-11-05T15:11:49.230Z,4.65
2017-11-05T15:14:18.074Z,3.25
2017-11-05T15:16:46.892Z,5.18
2017-11-05T15:19:15.640Z,3.70
2017-11-05T15:21:44.694Z,4.15
2017-11-05T15:24:14.257Z,3.90
2017-11-05T15:26:43.535Z,3.70
2017-11-05T15:29:11.434Z,4.10
2017-11-05T15:31:40.076Z,3.80
2017-11-05T15:34:08.911Z,3.95
2017-11-05T15:36:36.926Z,3.87
2017-11-05T15:39:05.770Z,4.12
2017-11-05T15:41:34.512Z,3.22
2017-11-05T15:44:02.501Z,3.33
2017-11-05T15:46:31.346Z,3.65
2017-11-05T15:48:59.369Z,3.60
2017-11-05T15:51:28.539Z,4.32
2017-11-05T15:53:57.926Z,3.45
2017-11-05T15:56:26.823Z,5.00
2017-11-05T15:58:55.683Z,5.25
2017-11-05T16:01:24.523Z,3.70
2017-11-05T16:03:53.357Z,4.00
2017-11-05T16:06:21.189Z,4.32
2017-11-05T16:08:48.994Z,4.45
2017-11-05T16:11:18.121Z,4.43
2017-11-05T16:13:47.597Z,4.10
2017-11-05T16:16:16.117Z,4.07
2017-11-05T16:18:46.170Z,4.78
2017-11-05T16:21:16.906Z,4.18
2017-11-05T16:23:46.123Z,4.62
2017-11-05T16:26:14.828Z,4.10
2017-11-05T16:28:44.664Z,4.03
2017-11-05T16:31:14.559Z,3.85
2017-11-05T16:33:43.497Z,4.30
2017-11-05T16:36:13.299Z,3.67
2017-11-05T16:38:42.108Z,3.47
2017-11-05T16:41:11.775Z,3.03
2017-11-05T16:43:40.847Z,3.15
2017-11-05T16:46:10.545Z,3.30
2017-11-05T16:48:39.554Z,3.75
2017-11-05T16:51:08.833Z,3.20
2017-11-05T16:53:37.674Z,4.22
2017-11-05T16:56:07.482Z,3.83
2017-11-05T16:58:36.807Z,3.67
2017-11-05T17:01:05.710Z,3.12
2017-11-05T17:03:35.373Z,3.87
2017-11-05T17:06:04.175Z,4.85
2017-11-05T17:08:32.991Z,3.70
2017-11-05T17:11:01.747Z,3.62
2017-11-05T17:13:30.703Z,4.40
2017-11-05T17:16:00.761Z,5.45
2017-11-05T17:18:30.349Z,4.43
2017-11-05T17:20:58.945Z,3.75
2017-11-05T17:23:27.983Z,5.15
2017-11-05T17:25:57.959Z,4.32
2017-11-05T17:28:27.112Z,4.50
2017-11-05T17:30:55.777Z,4.28
2017-11-05T17:33:24.594Z,3.80
2017-11-05T17:35:53.417Z,3.62
2017-11-05T17:38:22.540Z,3.42
2017-11-05T17:40:52.012Z,3.80
2017-11-05T17:43:20.716Z,3.83
2017-11-05T17:45:49.596Z,3.80
2017-11-05T17:48:18.549Z,3.47
2017-11-05T17:50:47.857Z,3.75
2017-11-05T17:53:16.626Z,4.12
2017-11-05T17:55:45.674Z,4.30
2017-11-05T17:58:15.045Z,3.92
2017-11-05T18:00:43.947Z,4.30
2017-11-05T18:03:12.174Z,3.50
2017-11-05T18:05:41.862Z,4.40
2017-11-05T18:08:10.796Z,4.35
2017-11-05T18:10:39.429Z,6.80
2017-11-05T18:13:08.873Z,5.62
2017-11-05T18:15:37.467Z,4.25
2017-11-05T18:18:06.741Z,3.67
2017-11-05T18:20:35.560Z,3.30
2017-11-05T18:23:04.113Z,3.17
2017-11-05T18:25:33.490Z,3.03
2017-11-05T18:28:02.115Z,3.15
2017-11-05T18:30:31.008Z,2.83
2017-11-05T18:33:00.844Z,4.05
2017-11-05T18:35:30.642Z,2.90
2017-11-05T18:37:59.530Z,2.95
2017-11-05T18:40:28.151Z,3.05
2017-11-05T18:42:57.410Z,3.12
2017-11-05T18:45:26.505Z,3.40
2017-11-05T18:47:55.191Z,3.00
2017-11-05T18:50:25.667Z,3.00
2017-11-05T18:52:54.805Z,3.70
2017-11-05T18:55:23.826Z,3.53
2017-11-05T18:57:54.133Z,3.60
2017-11-05T19:00:23.298Z,2.97
2017-11-05T19:02:51.762Z,2.85
2017-11-05T19:05:21.272Z,3.75
2017-11-05T19:07:50.238Z,2.85
2017-11-05T19:10:19.126Z,3.22
2017-11-05T19:12:48.570Z,3.30
2017-11-05T19:15:17.309Z,2.45
2017-11-05T19:17:46.014Z,3.90
2017-11-05T19:20:14.702Z,3.00
2017-11-05T19:22:43.734Z,4.05
2017-11-05T19:25:12.520Z,3.47
2017-11-05T19:27:41.194Z,3.83
2017-11-05T19:30:10.222Z,4.82
2017-11-05T19:32:39.481Z,4.28
2017-11-05T19:35:08.458Z,4.32
2017-11-05T19:37:37.362Z,4.78
2017-11-05T19:40:06.475Z,3.50
2017-11-05T19:42:36.188Z,4.35
2017-11-05T19:45:05.310Z,4.15
2017-11-05T19:47:39.581Z,4.22
2017-11-05T19:50:09.901Z,4.05
2017-11-05T19:52:38.839Z,4.32
2017-11-05T19:55:07.689Z,3.40
2017-11-05T19:57:37.062Z,3.67
2017-11-05T20:00:06.055Z,4.05
2017-11-05T20:02:35.938Z,5.35
2017-11-05T20:05:05.129Z,6.93
2017-11-05T20:07:34.713Z,4.00
2017-11-05T20:10:03.986Z,4.85
2017-11-05T20:12:33.750Z,3.70
2017-11-05T20:15:02.883Z,4.35
2017-11-05T20:17:31.752Z,4.30
2017-11-05T20:20:01.811Z,4.97
2017-11-05T20:22:32.014Z,4.70
2017-11-05T20:25:00.874Z,5.05
2017-11-05T20:27:30.687Z,4.12
2017-11-05T20:29:59.890Z,4.57
2017-11-05T20:32:28.810Z,4.45
2017-11-05T20:34:58.721Z,4.78
2017-11-05T20:37:28.192Z,4.78
2017-11-05T20:39:57.018Z,5.18
2017-11-05T20:42:25.829Z,4.00
2017-11-05T20:44:54.495Z,4.62
2017-11-05T20:47:23.550Z,4.68
2017-11-05T20:49:53.588Z,4.43
2017-11-05T20:52:22.283Z,5.82
2017-11-05T20:54:51.143Z,5.18
2017-11-05T20:57:20.073Z,7.07
2017-11-05T20:59:49.649Z,5.78
2017-11-05T21:02:18.765Z,6.78
2017-11-05T21:04:47.461Z,16.52
2017-11-05T21:07:16.167Z,8.07
2017-11-05T21:09:45.166Z,6.75
2017-11-05T21:12:15.433Z,7.50
2017-11-05T21:14:45.361Z,6.70
2017-11-05T21:17:14.184Z,6.97
2017-11-05T21:19:43.441Z,6.20
2017-11-05T21:22:12.935Z,5.87
2017-11-05T21:24:41.504Z,5.80
2017-11-05T21:27:11.412Z,5.50
2017-11-05T21:29:41.094Z,6.35
2017-11-05T21:32:09.597Z,6.20
2017-11-05T21:34:38.529Z,5.32
2017-11-05T21:37:07.650Z,5.50
2017-11-05T21:39:37.553Z,4.93
2017-11-05T21:42:06.325Z,5.10
2017-11-05T21:44:35.266Z,6.22
2017-11-05T21:47:04.136Z,4.80
2017-11-05T21:49:32.820Z,6.10
2017-11-05T21:52:01.720Z,6.03
2017-11-05T21:54:30.645Z,5.90
2017-11-05T21:56:59.218Z,6.18
2017-11-05T21:59:27.915Z,6.15
2017-11-05T22:01:56.818Z,6.43
2017-11-05T22:04:25.770Z,5.68
2017-11-05T22:06:54.532Z,5.35
2017-11-05T22:09:23.441Z,6.40
2017-11-05T22:11:52.042Z,6.03
2017-11-05T22:14:21.027Z,5.22
2017-11-05T22:16:49.758Z,6.25
2017-11-05T22:19:18.533Z,5.65
2017-11-05T22:21:47.248Z,15.40
2017-11-05T22:24:16.037Z,21.92
2017-11-05T22:26:45.795Z,7.20
2017-11-05T22:29:14.919Z,5.70
2017-11-05T22:31:43.604Z,6.70
2017-11-05T22:34:12.602Z,6.60
2017-11-05T22:36:41.626Z,6.12
2017-11-05T22:39:10.277Z,5.75
2017-11-05T22:41:39.309Z,7.10
2017-11-05T22:44:08.097Z,7.62
2017-11-05T22:46:36.354Z,7.35
2017-11-05T22:49:03.020Z,6.90
2017-11-05T22:51:29.365Z,8.32
2017-11-05T22:53:55.687Z,7.03
2017-11-05T22:56:22.031Z,7.22
2017-11-05T22:58:48.295Z,6.87
2017-11-05T23:01:15.397Z,6.97
2017-11-05T23:03:41.646Z,8.80
2017-11-05T23:06:07.956Z,7.40
2017-11-05T23:08:34.242Z,7.55
2017-11-05T23:11:00.556Z,6.82
2017-11-05T23:13:26.839Z,8.77
2017-11-05T23:15:53.119Z,8.65
2017-11-05T23:18:19.417Z,6.90
2017-11-05T23:20:45.703Z,7.93
2017-11-05T23:23:11.978Z,7.78
2017-11-05T23:25:38.254Z,7.50
2017-11-05T23:28:04.522Z,7.70
2017-11-05T23:30:30.802Z,7.57
2017-11-05T23:32:58.112Z,8.40
2017-11-05T23:35:24.427Z,8.75
2017-11-05T23:37:50.722Z,5.97
2017-11-05T23:40:17.016Z,7.78
2017-11-05T23:42:43.322Z,7.82
2017-11-05T23:45:09.608Z,7.28
2017-11-05T23:47:35.875Z,7.00
2017-11-05T23:50:02.158Z,5.90
2017-11-05T23:52:28.424Z,5.75
2017-11-05T23:54:54.703Z,7.62
2017-11-05T23:57:20.994Z,6.57
2017-11-05T23:59:47.255Z,6.70
